sensor_id;sensor_type;location;lat;lon;timestamp;P1;durP1;ratioP1;P2;durP2;ratioP2
55647;SDS011;45266;48.756;9.246;2023-07-16T00:00:12;3.60;;;2.97;;
55647;SDS011;45266;48.756;9.246;2023-07-16T00:01:19;5.13;;;2.95;;
55647;SDS011;45266;48.756;9.246;2023-07-16T00:02:27;4.50;;;2.70;;
55647;SDS011;45266;48.756;9.246;2023-07-16T00:03:34;7.72;;;3.42;;
55647;SDS011;45266;48.756;9.246;2023-07-16T00:04:42;4.72;;;3.25;;
55647;SDS011;45266;48.756;9.246;2023-07-16T00:05:51;5.40;;;3.75;;
55647;SDS011;45266;48.756;9.246;2023-07-16T00:07:01;6.15;;;3.45;;
55647;SDS011;45266;48.756;9.246;2023-07-16T00:08:08;5.10;;;3.30;;
55647;SDS011;45266;48.756;9.246;2023-07-16T00:09:15;4.80;;;3.35;;
55647;SDS011;45266;48.756;9.246;2023-07-16T00:10:22;4.45;;;3.00;;
55647;SDS011;45266;48.756;9.246;2023-07-16T00:11:29;4.32;;;3.00;;
55647;SDS011;45266;48.756;9.246;2023-07-16T00:12:37;4.03;;;2.60;;
55647;SDS011;45266;48.756;9.246;2023-07-16T00:13:45;4.97;;;2.70;;
55647;SDS011;45266;48.756;9.246;2023-07-16T00:14:53;2.78;;;2.20;;
55647;SDS011;45266;48.756;9.246;2023-07-16T00:16:01;2.47;;;2.00;;
55647;SDS011;45266;48.756;9.246;2023-07-16T00:17:08;3.97;;;2.20;;
55647;SDS011;45266;48.756;9.246;2023-07-16T00:18:15;3.78;;;2.35;;
55647;SDS011;45266;48.756;9.246;2023-07-16T00:19:23;2.20;;;2.00;;
55647;SDS011;45266;48.756;9.246;2023-07-16T00:20:30;2.80;;;2.40;;
55647;SDS011;45266;48.756;9.246;2023-07-16T00:21:38;3.83;;;2.20;;
55647;SDS011;45266;48.756;9.246;2023-07-16T00:22:44;2.95;;;2.13;;
55647;SDS011;45266;48.756;9.246;2023-07-16T00:23:52;2.95;;;2.28;;
55647;SDS011;45266;48.756;9.246;2023-07-16T00:25:00;3.90;;;2.25;;
55647;SDS011;45266;48.756;9.246;2023-07-16T00:26:07;2.60;;;2.20;;
55647;SDS011;45266;48.756;9.246;2023-07-16T00:27:14;2.28;;;2.05;;
55647;SDS011;45266;48.756;9.246;2023-07-16T00:28:21;2.40;;;1.92;;
55647;SDS011;45266;48.756;9.246;2023-07-16T00:29:28;2.60;;;2.30;;
55647;SDS011;45266;48.756;9.246;2023-07-16T00:30:36;4.45;;;2.33;;
55647;SDS011;45266;48.756;9.246;2023-07-16T00:31:43;2.58;;;2.20;;
55647;SDS011;45266;48.756;9.246;2023-07-16T00:32:51;4.53;;;2.38;;
55647;SDS011;45266;48.756;9.246;2023-07-16T00:33:59;6.07;;;2.47;;
55647;SDS011;45266;48.756;9.246;2023-07-16T00:35:07;3.13;;;2.00;;
55647;SDS011;45266;48.756;9.246;2023-07-16T00:36:15;2.83;;;2.20;;
55647;SDS011;45266;48.756;9.246;2023-07-16T00:37:22;5.13;;;2.45;;
55647;SDS011;45266;48.756;9.246;2023-07-16T00:38:30;3.40;;;1.98;;
55647;SDS011;45266;48.756;9.246;2023-07-16T00:39:35;2.35;;;1.95;;
55647;SDS011;45266;48.756;9.246;2023-07-16T00:40:41;3.35;;;2.72;;
55647;SDS011;45266;48.756;9.246;2023-07-16T00:41:48;4.38;;;2.50;;
55647;SDS011;45266;48.756;9.246;2023-07-16T00:42:55;4.38;;;2.70;;
55647;SDS011;45266;48.756;9.246;2023-07-16T00:44:02;4.30;;;2.42;;
55647;SDS011;45266;48.756;9.246;2023-07-16T00:45:09;3.17;;;2.53;;
55647;SDS011;45266;48.756;9.246;2023-07-16T00:46:19;3.58;;;2.60;;
55647;SDS011;45266;48.756;9.246;2023-07-16T00:47:26;3.47;;;2.65;;
55647;SDS011;45266;48.756;9.246;2023-07-16T00:48:33;2.60;;;2.40;;
55647;SDS011;45266;48.756;9.246;2023-07-16T00:49:41;4.82;;;2.60;;
55647;SDS011;45266;48.756;9.246;2023-07-16T00:50:47;4.32;;;2.60;;
55647;SDS011;45266;48.756;9.246;2023-07-16T00:51:56;3.10;;;2.67;;
55647;SDS011;45266;48.756;9.246;2023-07-16T00:53:04;3.35;;;2.53;;
55647;SDS011;45266;48.756;9.246;2023-07-16T00:54:13;3.42;;;2.47;;
55647;SDS011;45266;48.756;9.246;2023-07-16T00:55:21;2.47;;;2.28;;
55647;SDS011;45266;48.756;9.246;2023-07-16T00:56:31;2.67;;;2.30;;
55647;SDS011;45266;48.756;9.246;2023-07-16T00:57:39;3.45;;;2.53;;
55647;SDS011;45266;48.756;9.246;2023-07-16T00:58:48;3.75;;;2.42;;
55647;SDS011;45266;48.756;9.246;2023-07-16T00:59:55;2.92;;;2.58;;
55647;SDS011;45266;48.756;9.246;2023-07-16T01:01:03;3.22;;;2.60;;
55647;SDS011;45266;48.756;9.246;2023-07-16T01:02:12;5.88;;;2.60;;
55647;SDS011;45266;48.756;9.246;2023-07-16T01:03:20;6.25;;;2.85;;
55647;SDS011;45266;48.756;9.246;2023-07-16T01:04:27;4.20;;;2.63;;
55647;SDS011;45266;48.756;9.246;2023-07-16T01:05:36;4.22;;;2.50;;
55647;SDS011;45266;48.756;9.246;2023-07-16T01:06:45;2.45;;;2.25;;
55647;SDS011;45266;48.756;9.246;2023-07-16T01:07:57;2.75;;;2.10;;
55647;SDS011;45266;48.756;9.246;2023-07-16T01:10:16;3.30;;;2.30;;
55647;SDS011;45266;48.756;9.246;2023-07-16T01:11:24;2.53;;;2.13;;
55647;SDS011;45266;48.756;9.246;2023-07-16T01:12:32;3.67;;;2.30;;
55647;SDS011;45266;48.756;9.246;2023-07-16T01:13:40;3.67;;;2.50;;
55647;SDS011;45266;48.756;9.246;2023-07-16T01:14:46;2.80;;;2.47;;
55647;SDS011;45266;48.756;9.246;2023-07-16T01:15:56;3.85;;;2.40;;
55647;SDS011;45266;48.756;9.246;2023-07-16T01:17:03;3.60;;;2.50;;
55647;SDS011;45266;48.756;9.246;2023-07-16T01:18:10;8.30;;;2.83;;
55647;SDS011;45266;48.756;9.246;2023-07-16T01:19:15;5.20;;;2.47;;
55647;SDS011;45266;48.756;9.246;2023-07-16T01:20:21;2.20;;;2.00;;
55647;SDS011;45266;48.756;9.246;2023-07-16T01:21:28;3.22;;;2.17;;
55647;SDS011;45266;48.756;9.246;2023-07-16T01:23:08;2.97;;;2.33;;
55647;SDS011;45266;48.756;9.246;2023-07-16T01:24:44;4.07;;;2.40;;
55647;SDS011;45266;48.756;9.246;2023-07-16T01:30:13;3.45;;;1.73;;
55647;SDS011;45266;48.756;9.246;2023-07-16T01:31:21;1.77;;;1.60;;
55647;SDS011;45266;48.756;9.246;2023-07-16T01:32:27;4.70;;;1.85;;
55647;SDS011;45266;48.756;9.246;2023-07-16T01:33:38;2.00;;;1.80;;
55647;SDS011;45266;48.756;9.246;2023-07-16T01:34:47;3.03;;;2.05;;
55647;SDS011;45266;48.756;9.246;2023-07-16T01:35:58;3.60;;;1.88;;
55647;SDS011;45266;48.756;9.246;2023-07-16T01:37:08;5.05;;;2.13;;
55647;SDS011;45266;48.756;9.246;2023-07-16T01:38:16;3.15;;;2.10;;
55647;SDS011;45266;48.756;9.246;2023-07-16T01:39:26;2.40;;;1.88;;
55647;SDS011;45266;48.756;9.246;2023-07-16T01:40:35;2.55;;;1.90;;
55647;SDS011;45266;48.756;9.246;2023-07-16T01:41:43;3.40;;;1.90;;
55647;SDS011;45266;48.756;9.246;2023-07-16T01:42:48;2.22;;;1.73;;
55647;SDS011;45266;48.756;9.246;2023-07-16T01:43:53;4.25;;;1.85;;
55647;SDS011;45266;48.756;9.246;2023-07-16T01:44:59;2.22;;;1.98;;
55647;SDS011;45266;48.756;9.246;2023-07-16T01:46:04;3.78;;;2.10;;
55647;SDS011;45266;48.756;9.246;2023-07-16T01:47:11;2.15;;;1.95;;
55647;SDS011;45266;48.756;9.246;2023-07-16T01:48:31;2.88;;;2.00;;
55647;SDS011;45266;48.756;9.246;2023-07-16T01:49:43;2.67;;;2.10;;
55647;SDS011;45266;48.756;9.246;2023-07-16T01:50:48;6.25;;;2.28;;
55647;SDS011;45266;48.756;9.246;2023-07-16T01:51:54;5.38;;;2.03;;
55647;SDS011;45266;48.756;9.246;2023-07-16T01:52:59;2.35;;;1.77;;
55647;SDS011;45266;48.756;9.246;2023-07-16T01:54:05;3.78;;;1.90;;
55647;SDS011;45266;48.756;9.246;2023-07-16T01:55:11;2.20;;;2.00;;
55647;SDS011;45266;48.756;9.246;2023-07-16T01:56:20;3.05;;;1.70;;
55647;SDS011;45266;48.756;9.246;2023-07-16T01:57:28;4.65;;;1.67;;
55647;SDS011;45266;48.756;9.246;2023-07-16T01:58:36;3.05;;;2.03;;
55647;SDS011;45266;48.756;9.246;2023-07-16T01:59:43;3.45;;;2.00;;
55647;SDS011;45266;48.756;9.246;2023-07-16T02:00:49;1.55;;;1.45;;
55647;SDS011;45266;48.756;9.246;2023-07-16T02:01:54;3.22;;;2.00;;
55647;SDS011;45266;48.756;9.246;2023-07-16T02:02:58;2.88;;;2.22;;
55647;SDS011;45266;48.756;9.246;2023-07-16T02:04:01;5.18;;;2.00;;
55647;SDS011;45266;48.756;9.246;2023-07-16T02:05:04;2.53;;;2.10;;
55647;SDS011;45266;48.756;9.246;2023-07-16T02:06:08;2.75;;;1.80;;
55647;SDS011;45266;48.756;9.246;2023-07-16T02:07:11;3.60;;;1.90;;
55647;SDS011;45266;48.756;9.246;2023-07-16T02:08:14;3.65;;;1.67;;
55647;SDS011;45266;48.756;9.246;2023-07-16T02:09:19;2.72;;;1.55;;
55647;SDS011;45266;48.756;9.246;2023-07-16T02:10:23;1.30;;;1.20;;
55647;SDS011;45266;48.756;9.246;2023-07-16T02:11:27;1.60;;;1.35;;
55647;SDS011;45266;48.756;9.246;2023-07-16T02:12:31;1.80;;;1.45;;
55647;SDS011;45266;48.756;9.246;2023-07-16T02:13:34;2.65;;;1.40;;
55647;SDS011;45266;48.756;9.246;2023-07-16T02:14:38;1.58;;;1.30;;
55647;SDS011;45266;48.756;9.246;2023-07-16T02:15:42;3.40;;;1.50;;
55647;SDS011;45266;48.756;9.246;2023-07-16T02:16:46;2.65;;;1.85;;
55647;SDS011;45266;48.756;9.246;2023-07-16T02:17:49;1.60;;;1.50;;
55647;SDS011;45266;48.756;9.246;2023-07-16T02:18:53;2.85;;;1.67;;
55647;SDS011;45266;48.756;9.246;2023-07-16T02:19:56;5.30;;;1.98;;
55647;SDS011;45266;48.756;9.246;2023-07-16T02:21:00;2.00;;;1.63;;
55647;SDS011;45266;48.756;9.246;2023-07-16T02:22:04;2.25;;;1.75;;
55647;SDS011;45266;48.756;9.246;2023-07-16T02:23:08;2.50;;;1.60;;
55647;SDS011;45266;48.756;9.246;2023-07-16T02:24:12;2.53;;;1.38;;
55647;SDS011;45266;48.756;9.246;2023-07-16T02:25:16;3.05;;;1.40;;
55647;SDS011;45266;48.756;9.246;2023-07-16T02:26:19;2.42;;;1.38;;
55647;SDS011;45266;48.756;9.246;2023-07-16T02:27:23;2.05;;;1.58;;
55647;SDS011;45266;48.756;9.246;2023-07-16T02:28:26;1.70;;;1.60;;
55647;SDS011;45266;48.756;9.246;2023-07-16T02:29:31;2.33;;;1.35;;
55647;SDS011;45266;48.756;9.246;2023-07-16T02:30:35;3.08;;;1.83;;
55647;SDS011;45266;48.756;9.246;2023-07-16T02:31:38;3.10;;;1.80;;
55647;SDS011;45266;48.756;9.246;2023-07-16T02:32:41;1.60;;;1.50;;
55647;SDS011;45266;48.756;9.246;2023-07-16T02:33:44;1.50;;;1.40;;
55647;SDS011;45266;48.756;9.246;2023-07-16T02:34:48;1.70;;;1.60;;
55647;SDS011;45266;48.756;9.246;2023-07-16T02:35:51;4.05;;;1.90;;
55647;SDS011;45266;48.756;9.246;2023-07-16T02:36:54;1.90;;;1.70;;
55647;SDS011;45266;48.756;9.246;2023-07-16T02:37:57;4.80;;;1.75;;
55647;SDS011;45266;48.756;9.246;2023-07-16T02:39:00;1.60;;;1.50;;
55647;SDS011;45266;48.756;9.246;2023-07-16T02:40:05;2.63;;;1.88;;
55647;SDS011;45266;48.756;9.246;2023-07-16T02:41:09;2.60;;;1.50;;
55647;SDS011;45266;48.756;9.246;2023-07-16T02:42:12;4.57;;;1.60;;
55647;SDS011;45266;48.756;9.246;2023-07-16T02:43:15;2.72;;;1.40;;
55647;SDS011;45266;48.756;9.246;2023-07-16T02:44:18;1.88;;;1.38;;
55647;SDS011;45266;48.756;9.246;2023-07-16T02:45:21;3.72;;;1.48;;
55647;SDS011;45266;48.756;9.246;2023-07-16T02:46:24;2.05;;;1.60;;
55647;SDS011;45266;48.756;9.246;2023-07-16T02:47:27;3.05;;;1.60;;
55647;SDS011;45266;48.756;9.246;2023-07-16T02:48:30;2.22;;;1.50;;
55647;SDS011;45266;48.756;9.246;2023-07-16T02:49:33;3.88;;;1.42;;
55647;SDS011;45266;48.756;9.246;2023-07-16T02:50:37;1.80;;;1.70;;
55647;SDS011;45266;48.756;9.246;2023-07-16T02:51:40;3.85;;;1.67;;
55647;SDS011;45266;48.756;9.246;2023-07-16T02:52:43;2.55;;;1.60;;
55647;SDS011;45266;48.756;9.246;2023-07-16T02:53:46;3.40;;;1.63;;
55647;SDS011;45266;48.756;9.246;2023-07-16T02:54:49;1.40;;;1.30;;
55647;SDS011;45266;48.756;9.246;2023-07-16T02:55:52;1.90;;;1.50;;
55647;SDS011;45266;48.756;9.246;2023-07-16T02:56:55;1.80;;;1.40;;
55647;SDS011;45266;48.756;9.246;2023-07-16T02:57:58;3.13;;;1.30;;
55647;SDS011;45266;48.756;9.246;2023-07-16T02:59:04;1.42;;;1.30;;
55647;SDS011;45266;48.756;9.246;2023-07-16T03:00:07;4.40;;;1.50;;
55647;SDS011;45266;48.756;9.246;2023-07-16T03:01:11;3.70;;;1.40;;
55647;SDS011;45266;48.756;9.246;2023-07-16T03:02:15;1.40;;;1.30;;
55647;SDS011;45266;48.756;9.246;2023-07-16T03:03:17;4.28;;;1.60;;
55647;SDS011;45266;48.756;9.246;2023-07-16T03:04:20;3.53;;;1.33;;
55647;SDS011;45266;48.756;9.246;2023-07-16T03:05:23;2.88;;;1.17;;
55647;SDS011;45266;48.756;9.246;2023-07-16T03:06:27;1.80;;;1.60;;
55647;SDS011;45266;48.756;9.246;2023-07-16T03:07:30;2.30;;;1.10;;
55647;SDS011;45266;48.756;9.246;2023-07-16T03:08:33;1.83;;;1.33;;
55647;SDS011;45266;48.756;9.246;2023-07-16T03:09:36;3.65;;;1.50;;
55647;SDS011;45266;48.756;9.246;2023-07-16T03:10:39;1.85;;;1.60;;
55647;SDS011;45266;48.756;9.246;2023-07-16T03:11:42;2.90;;;1.45;;
55647;SDS011;45266;48.756;9.246;2023-07-16T03:12:45;1.50;;;1.33;;
55647;SDS011;45266;48.756;9.246;2023-07-16T03:13:48;1.65;;;1.48;;
55647;SDS011;45266;48.756;9.246;2023-07-16T03:14:51;2.40;;;1.75;;
55647;SDS011;45266;48.756;9.246;2023-07-16T03:15:56;3.47;;;1.20;;
55647;SDS011;45266;48.756;9.246;2023-07-16T03:17:00;2.45;;;1.40;;
55647;SDS011;45266;48.756;9.246;2023-07-16T03:18:03;4.40;;;1.48;;
55647;SDS011;45266;48.756;9.246;2023-07-16T03:19:06;2.47;;;1.60;;
55647;SDS011;45266;48.756;9.246;2023-07-16T03:20:09;3.05;;;1.40;;
55647;SDS011;45266;48.756;9.246;2023-07-16T03:21:12;2.42;;;1.65;;
55647;SDS011;45266;48.756;9.246;2023-07-16T03:22:16;1.27;;;1.17;;
55647;SDS011;45266;48.756;9.246;2023-07-16T03:23:19;1.75;;;1.40;;
55647;SDS011;45266;48.756;9.246;2023-07-16T03:24:22;2.25;;;1.40;;
55647;SDS011;45266;48.756;9.246;2023-07-16T03:25:25;3.83;;;1.40;;
55647;SDS011;45266;48.756;9.246;2023-07-16T03:26:28;2.88;;;1.38;;
55647;SDS011;45266;48.756;9.246;2023-07-16T03:27:31;2.17;;;1.50;;
55647;SDS011;45266;48.756;9.246;2023-07-16T03:28:33;3.95;;;1.55;;
55647;SDS011;45266;48.756;9.246;2023-07-16T03:29:37;2.15;;;1.50;;
55647;SDS011;45266;48.756;9.246;2023-07-16T03:30:39;3.03;;;1.38;;
55647;SDS011;45266;48.756;9.246;2023-07-16T03:31:47;2.22;;;1.40;;
55647;SDS011;45266;48.756;9.246;2023-07-16T03:32:50;2.50;;;1.63;;
55647;SDS011;45266;48.756;9.246;2023-07-16T03:33:54;3.15;;;1.42;;
55647;SDS011;45266;48.756;9.246;2023-07-16T03:34:57;2.95;;;2.00;;
55647;SDS011;45266;48.756;9.246;2023-07-16T03:36:00;2.13;;;1.35;;
55647;SDS011;45266;48.756;9.246;2023-07-16T03:37:04;2.45;;;1.35;;
55647;SDS011;45266;48.756;9.246;2023-07-16T03:38:07;2.10;;;1.63;;
55647;SDS011;45266;48.756;9.246;2023-07-16T03:39:11;6.45;;;1.73;;
55647;SDS011;45266;48.756;9.246;2023-07-16T03:40:14;2.45;;;2.05;;
55647;SDS011;45266;48.756;9.246;2023-07-16T03:41:19;3.15;;;1.60;;
55647;SDS011;45266;48.756;9.246;2023-07-16T03:42:24;1.60;;;1.50;;
55647;SDS011;45266;48.756;9.246;2023-07-16T03:43:29;3.67;;;1.70;;
55647;SDS011;45266;48.756;9.246;2023-07-16T03:44:33;2.72;;;1.52;;
55647;SDS011;45266;48.756;9.246;2023-07-16T03:45:38;5.47;;;1.73;;
55647;SDS011;45266;48.756;9.246;2023-07-16T03:46:43;6.10;;;2.10;;
55647;SDS011;45266;48.756;9.246;2023-07-16T03:47:47;2.53;;;1.48;;
55647;SDS011;45266;48.756;9.246;2023-07-16T03:48:53;4.70;;;1.70;;
55647;SDS011;45266;48.756;9.246;2023-07-16T03:49:57;5.30;;;1.60;;
55647;SDS011;45266;48.756;9.246;2023-07-16T03:51:03;2.08;;;1.60;;
55647;SDS011;45266;48.756;9.246;2023-07-16T03:52:07;3.10;;;1.60;;
55647;SDS011;45266;48.756;9.246;2023-07-16T03:53:12;3.55;;;1.77;;
55647;SDS011;45266;48.756;9.246;2023-07-16T03:54:16;2.72;;;1.52;;
55647;SDS011;45266;48.756;9.246;2023-07-16T03:55:21;2.67;;;1.60;;
55647;SDS011;45266;48.756;9.246;2023-07-16T03:56:26;3.15;;;1.38;;
55647;SDS011;45266;48.756;9.246;2023-07-16T03:57:30;7.20;;;1.90;;
55647;SDS011;45266;48.756;9.246;2023-07-16T03:58:35;4.18;;;1.75;;
55647;SDS011;45266;48.756;9.246;2023-07-16T03:59:40;4.07;;;1.70;;
55647;SDS011;45266;48.756;9.246;2023-07-16T04:00:46;2.75;;;1.67;;
55647;SDS011;45266;48.756;9.246;2023-07-16T04:01:51;4.00;;;1.83;;
55647;SDS011;45266;48.756;9.246;2023-07-16T04:02:56;2.65;;;1.83;;
55647;SDS011;45266;48.756;9.246;2023-07-16T04:04:01;4.28;;;1.85;;
55647;SDS011;45266;48.756;9.246;2023-07-16T04:05:06;3.70;;;1.50;;
55647;SDS011;45266;48.756;9.246;2023-07-16T04:06:11;2.47;;;1.48;;
55647;SDS011;45266;48.756;9.246;2023-07-16T04:07:17;4.95;;;1.85;;
55647;SDS011;45266;48.756;9.246;2023-07-16T04:08:22;2.78;;;1.85;;
55647;SDS011;45266;48.756;9.246;2023-07-16T04:09:27;3.25;;;1.83;;
55647;SDS011;45266;48.756;9.246;2023-07-16T04:10:32;3.85;;;1.80;;
55647;SDS011;45266;48.756;9.246;2023-07-16T04:11:36;1.83;;;1.73;;
55647;SDS011;45266;48.756;9.246;2023-07-16T04:12:42;2.67;;;1.75;;
55647;SDS011;45266;48.756;9.246;2023-07-16T04:13:46;4.50;;;1.85;;
55647;SDS011;45266;48.756;9.246;2023-07-16T04:14:55;4.25;;;1.90;;
55647;SDS011;45266;48.756;9.246;2023-07-16T04:16:01;5.68;;;1.88;;
55647;SDS011;45266;48.756;9.246;2023-07-16T04:17:06;3.38;;;1.73;;
55647;SDS011;45266;48.756;9.246;2023-07-16T04:18:11;3.10;;;1.67;;
55647;SDS011;45266;48.756;9.246;2023-07-16T04:19:15;2.35;;;1.70;;
55647;SDS011;45266;48.756;9.246;2023-07-16T04:20:20;2.90;;;1.60;;
55647;SDS011;45266;48.756;9.246;2023-07-16T04:21:25;3.20;;;1.75;;
55647;SDS011;45266;48.756;9.246;2023-07-16T04:22:29;6.80;;;1.95;;
55647;SDS011;45266;48.756;9.246;2023-07-16T04:23:35;4.78;;;1.90;;
55647;SDS011;45266;48.756;9.246;2023-07-16T04:24:39;2.35;;;1.80;;
55647;SDS011;45266;48.756;9.246;2023-07-16T04:25:44;3.67;;;1.75;;
55647;SDS011;45266;48.756;9.246;2023-07-16T04:26:49;3.42;;;1.98;;
55647;SDS011;45266;48.756;9.246;2023-07-16T04:27:55;3.40;;;1.48;;
55647;SDS011;45266;48.756;9.246;2023-07-16T04:29:00;3.90;;;1.65;;
55647;SDS011;45266;48.756;9.246;2023-07-16T04:30:05;2.90;;;1.67;;
55647;SDS011;45266;48.756;9.246;2023-07-16T04:31:10;4.35;;;2.03;;
55647;SDS011;45266;48.756;9.246;2023-07-16T04:32:15;4.75;;;1.80;;
55647;SDS011;45266;48.756;9.246;2023-07-16T04:33:20;1.88;;;1.60;;
55647;SDS011;45266;48.756;9.246;2023-07-16T04:34:25;3.22;;;1.80;;
55647;SDS011;45266;48.756;9.246;2023-07-16T04:35:28;3.60;;;1.80;;
55647;SDS011;45266;48.756;9.246;2023-07-16T04:36:31;5.32;;;2.15;;
55647;SDS011;45266;48.756;9.246;2023-07-16T04:37:34;3.53;;;1.75;;
55647;SDS011;45266;48.756;9.246;2023-07-16T04:38:37;4.07;;;1.90;;
55647;SDS011;45266;48.756;9.246;2023-07-16T04:39:40;5.97;;;1.90;;
55647;SDS011;45266;48.756;9.246;2023-07-16T04:40:43;4.50;;;1.70;;
55647;SDS011;45266;48.756;9.246;2023-07-16T04:41:45;3.55;;;1.88;;
55647;SDS011;45266;48.756;9.246;2023-07-16T04:42:48;2.63;;;1.88;;
55647;SDS011;45266;48.756;9.246;2023-07-16T04:43:50;1.73;;;1.60;;
55647;SDS011;45266;48.756;9.246;2023-07-16T04:44:53;5.18;;;1.85;;
55647;SDS011;45266;48.756;9.246;2023-07-16T04:45:55;3.95;;;1.83;;
55647;SDS011;45266;48.756;9.246;2023-07-16T04:46:58;2.47;;;2.08;;
55647;SDS011;45266;48.756;9.246;2023-07-16T04:48:01;4.32;;;2.00;;
55647;SDS011;45266;48.756;9.246;2023-07-16T04:49:06;5.50;;;1.60;;
55647;SDS011;45266;48.756;9.246;2023-07-16T04:50:11;2.95;;;1.70;;
55647;SDS011;45266;48.756;9.246;2023-07-16T04:51:16;3.53;;;1.58;;
55647;SDS011;45266;48.756;9.246;2023-07-16T04:52:21;4.35;;;1.75;;
55647;SDS011;45266;48.756;9.246;2023-07-16T04:53:25;4.13;;;1.52;;
55647;SDS011;45266;48.756;9.246;2023-07-16T04:54:34;2.65;;;1.63;;
55647;SDS011;45266;48.756;9.246;2023-07-16T04:55:43;3.10;;;1.90;;
55647;SDS011;45266;48.756;9.246;2023-07-16T04:56:48;5.82;;;1.77;;
55647;SDS011;45266;48.756;9.246;2023-07-16T04:57:52;2.95;;;1.60;;
55647;SDS011;45266;48.756;9.246;2023-07-16T04:58:57;2.67;;;1.73;;
55647;SDS011;45266;48.756;9.246;2023-07-16T05:00:01;3.25;;;1.70;;
55647;SDS011;45266;48.756;9.246;2023-07-16T05:01:09;3.63;;;1.73;;
55647;SDS011;45266;48.756;9.246;2023-07-16T05:02:14;4.25;;;1.90;;
55647;SDS011;45266;48.756;9.246;2023-07-16T05:03:20;3.47;;;1.70;;
55647;SDS011;45266;48.756;9.246;2023-07-16T05:04:28;2.92;;;1.73;;
55647;SDS011;45266;48.756;9.246;2023-07-16T05:05:33;2.08;;;1.83;;
55647;SDS011;45266;48.756;9.246;2023-07-16T05:06:38;2.05;;;1.67;;
55647;SDS011;45266;48.756;9.246;2023-07-16T05:07:42;4.13;;;2.10;;
55647;SDS011;45266;48.756;9.246;2023-07-16T05:08:47;3.58;;;2.00;;
55647;SDS011;45266;48.756;9.246;2023-07-16T05:09:51;4.88;;;1.90;;
55647;SDS011;45266;48.756;9.246;2023-07-16T05:10:56;5.10;;;1.80;;
55647;SDS011;45266;48.756;9.246;2023-07-16T05:12:02;3.33;;;1.70;;
55647;SDS011;45266;48.756;9.246;2023-07-16T05:13:07;3.28;;;1.75;;
55647;SDS011;45266;48.756;9.246;2023-07-16T05:14:12;2.88;;;1.77;;
55647;SDS011;45266;48.756;9.246;2023-07-16T05:15:16;4.32;;;1.60;;
55647;SDS011;45266;48.756;9.246;2023-07-16T05:16:21;3.30;;;1.80;;
55647;SDS011;45266;48.756;9.246;2023-07-16T05:17:26;2.83;;;1.90;;
55647;SDS011;45266;48.756;9.246;2023-07-16T05:18:30;3.97;;;2.00;;
55647;SDS011;45266;48.756;9.246;2023-07-16T05:19:35;3.15;;;2.03;;
55647;SDS011;45266;48.756;9.246;2023-07-16T05:20:43;4.07;;;1.60;;
55647;SDS011;45266;48.756;9.246;2023-07-16T05:21:51;2.30;;;1.50;;
55647;SDS011;45266;48.756;9.246;2023-07-16T05:22:55;4.85;;;2.17;;
55647;SDS011;45266;48.756;9.246;2023-07-16T05:24:00;3.67;;;1.75;;
55647;SDS011;45266;48.756;9.246;2023-07-16T05:25:05;3.15;;;1.80;;
55647;SDS011;45266;48.756;9.246;2023-07-16T05:26:10;2.75;;;1.73;;
55647;SDS011;45266;48.756;9.246;2023-07-16T05:27:15;5.10;;;1.48;;
55647;SDS011;45266;48.756;9.246;2023-07-16T05:28:20;4.07;;;2.38;;
55647;SDS011;45266;48.756;9.246;2023-07-16T05:29:25;2.15;;;1.70;;
55647;SDS011;45266;48.756;9.246;2023-07-16T05:30:29;3.42;;;1.50;;
55647;SDS011;45266;48.756;9.246;2023-07-16T05:31:34;2.10;;;1.88;;
55647;SDS011;45266;48.756;9.246;2023-07-16T05:32:38;2.55;;;1.65;;
55647;SDS011;45266;48.756;9.246;2023-07-16T05:33:43;1.80;;;1.70;;
55647;SDS011;45266;48.756;9.246;2023-07-16T05:34:48;4.25;;;1.50;;
55647;SDS011;45266;48.756;9.246;2023-07-16T05:35:54;4.10;;;1.75;;
55647;SDS011;45266;48.756;9.246;2023-07-16T05:36:59;3.97;;;1.70;;
55647;SDS011;45266;48.756;9.246;2023-07-16T05:38:04;4.65;;;2.30;;
55647;SDS011;45266;48.756;9.246;2023-07-16T05:39:09;4.10;;;1.90;;
55647;SDS011;45266;48.756;9.246;2023-07-16T05:40:17;3.63;;;2.05;;
55647;SDS011;45266;48.756;9.246;2023-07-16T05:41:21;2.47;;;1.52;;
55647;SDS011;45266;48.756;9.246;2023-07-16T05:42:26;6.65;;;1.90;;
55647;SDS011;45266;48.756;9.246;2023-07-16T05:43:31;3.50;;;1.75;;
55647;SDS011;45266;48.756;9.246;2023-07-16T05:44:36;2.40;;;1.67;;
55647;SDS011;45266;48.756;9.246;2023-07-16T05:45:42;6.07;;;1.90;;
55647;SDS011;45266;48.756;9.246;2023-07-16T05:46:46;5.60;;;1.70;;
55647;SDS011;45266;48.756;9.246;2023-07-16T05:47:51;5.25;;;1.90;;
55647;SDS011;45266;48.756;9.246;2023-07-16T05:48:55;4.18;;;1.90;;
55647;SDS011;45266;48.756;9.246;2023-07-16T05:50:00;6.50;;;1.95;;
55647;SDS011;45266;48.756;9.246;2023-07-16T05:51:05;3.63;;;2.35;;
55647;SDS011;45266;48.756;9.246;2023-07-16T05:52:10;3.63;;;2.17;;
55647;SDS011;45266;48.756;9.246;2023-07-16T05:53:14;2.70;;;2.05;;
55647;SDS011;45266;48.756;9.246;2023-07-16T05:54:19;3.72;;;2.15;;
55647;SDS011;45266;48.756;9.246;2023-07-16T05:55:24;2.95;;;2.00;;
55647;SDS011;45266;48.756;9.246;2023-07-16T05:56:29;4.15;;;2.17;;
55647;SDS011;45266;48.756;9.246;2023-07-16T05:57:34;2.50;;;2.10;;
55647;SDS011;45266;48.756;9.246;2023-07-16T05:58:39;5.47;;;2.00;;
55647;SDS011;45266;48.756;9.246;2023-07-16T05:59:44;6.90;;;2.08;;
55647;SDS011;45266;48.756;9.246;2023-07-16T06:00:50;3.47;;;1.70;;
55647;SDS011;45266;48.756;9.246;2023-07-16T06:01:55;4.30;;;1.70;;
55647;SDS011;45266;48.756;9.246;2023-07-16T06:03:04;1.63;;;1.50;;
55647;SDS011;45266;48.756;9.246;2023-07-16T06:04:09;2.20;;;1.65;;
55647;SDS011;45266;48.756;9.246;2023-07-16T06:05:15;2.92;;;1.80;;
55647;SDS011;45266;48.756;9.246;2023-07-16T06:06:21;3.63;;;1.88;;
55647;SDS011;45266;48.756;9.246;2023-07-16T06:07:26;3.05;;;1.95;;
55647;SDS011;45266;48.756;9.246;2023-07-16T06:08:31;3.30;;;1.67;;
55647;SDS011;45266;48.756;9.246;2023-07-16T06:09:36;3.85;;;1.60;;
55647;SDS011;45266;48.756;9.246;2023-07-16T06:10:40;4.25;;;1.85;;
55647;SDS011;45266;48.756;9.246;2023-07-16T06:11:47;3.33;;;1.80;;
55647;SDS011;45266;48.756;9.246;2023-07-16T06:12:52;3.65;;;1.80;;
55647;SDS011;45266;48.756;9.246;2023-07-16T06:13:57;6.07;;;1.58;;
55647;SDS011;45266;48.756;9.246;2023-07-16T06:15:01;2.38;;;1.67;;
55647;SDS011;45266;48.756;9.246;2023-07-16T06:16:06;4.45;;;1.77;;
55647;SDS011;45266;48.756;9.246;2023-07-16T06:17:11;2.65;;;1.70;;
55647;SDS011;45266;48.756;9.246;2023-07-16T06:18:16;4.10;;;1.80;;
55647;SDS011;45266;48.756;9.246;2023-07-16T06:19:23;3.33;;;1.90;;
55647;SDS011;45266;48.756;9.246;2023-07-16T06:20:28;4.78;;;1.90;;
55647;SDS011;45266;48.756;9.246;2023-07-16T06:21:34;4.75;;;2.05;;
55647;SDS011;45266;48.756;9.246;2023-07-16T06:22:41;2.92;;;1.95;;
55647;SDS011;45266;48.756;9.246;2023-07-16T06:23:47;3.03;;;2.03;;
55647;SDS011;45266;48.756;9.246;2023-07-16T06:24:52;2.78;;;1.85;;
55647;SDS011;45266;48.756;9.246;2023-07-16T06:25:57;5.13;;;1.80;;
55647;SDS011;45266;48.756;9.246;2023-07-16T06:27:01;3.25;;;1.60;;
55647;SDS011;45266;48.756;9.246;2023-07-16T06:28:06;1.95;;;1.75;;
55647;SDS011;45266;48.756;9.246;2023-07-16T06:29:10;1.92;;;1.33;;
55647;SDS011;45266;48.756;9.246;2023-07-16T06:30:15;5.90;;;1.65;;
55647;SDS011;45266;48.756;9.246;2023-07-16T06:31:19;4.32;;;1.70;;
55647;SDS011;45266;48.756;9.246;2023-07-16T06:32:27;2.38;;;1.67;;
55647;SDS011;45266;48.756;9.246;2023-07-16T06:33:32;5.63;;;2.10;;
55647;SDS011;45266;48.756;9.246;2023-07-16T06:34:38;5.30;;;1.90;;
55647;SDS011;45266;48.756;9.246;2023-07-16T06:35:44;4.22;;;1.98;;
55647;SDS011;45266;48.756;9.246;2023-07-16T06:36:51;1.60;;;1.50;;
55647;SDS011;45266;48.756;9.246;2023-07-16T06:37:58;5.85;;;2.10;;
55647;SDS011;45266;48.756;9.246;2023-07-16T06:39:04;5.35;;;1.77;;
55647;SDS011;45266;48.756;9.246;2023-07-16T06:40:11;4.55;;;1.90;;